Time;durP1;ratioP1;P1;durP2;ratioP2;P2;SDS_P1;SDS_P2;PMS_P1;PMS_P2;Temp;Humidity;BMP_temperature;BMP_pressure;BME280_temperature;BME280_humidity;BME280_pressure;Samples;Min_cycle;Max_cycle;Signal;HPM_P1;HPM_P2
2023/01/12 00:01:35;;;;;;;8.68;1.40;;;;;;;6.58;100.00;100887.88;5095895;28;20031;-84
2023/01/12 00:04:02;;;;;;;9.50;1.70;;;;;;;6.62;100.00;100912.59;5095945;28;20028;-84
2023/01/12 00:06:30;;;;;;;19.63;2.25;;;;;;;6.59;100.00;100889.56;5079073;28;20110;-85
2023/01/12 00:08:59;;;;;;;14.82;1.80;;;;;;;6.61;100.00;100903.66;5079388;28;20122;-85
2023/01/12 00:11:25;;;;;;;8.82;1.75;;;;;;;6.64;100.00;100889.84;5095519;28;20032;-85
2023/01/12 00:13:53;;;;;;;13.15;2.58;;;;;;;6.65;100.00;100898.75;5114337;28;20119;-85
2023/01/12 00:16:39;;;;;;;10.32;1.95;;;;;;;6.66;100.00;100881.56;5116633;28;20028;-85
2023/01/12 00:19:24;;;;;;;11.13;1.52;;;;;;;6.75;100.00;100884.97;5118822;28;20034;-85
2023/01/12 00:22:00;;;;;;;11.88;1.60;;;;;;;6.72;100.00;100880.78;5100860;28;20401;-85
2023/01/12 00:24:38;;;;;;;14.60;2.25;;;;;;;6.73;100.00;100882.47;5083529;28;20042;-85
2023/01/12 00:27:10;;;;;;;14.30;2.45;;;;;;;6.74;100.00;100881.44;5100049;28;20451;-86
2023/01/12 00:29:36;;;;;;;16.88;2.58;;;;;;;6.77;100.00;100872.13;5100550;28;20016;-85
2023/01/12 00:32:03;;;;;;;13.10;2.40;;;;;;;6.80;100.00;100877.16;5117922;28;20065;-86
2023/01/12 00:34:29;;;;;;;12.97;1.87;;;;;;;6.87;100.00;100861.88;5083169;28;20107;-85
2023/01/12 00:36:54;;;;;;;22.55;2.90;;;;;;;6.81;100.00;100846.47;5083109;28;20051;-85
2023/01/12 00:39:20;;;;;;;15.63;2.03;;;;;;;6.82;100.00;100856.22;5099281;28;20055;-85
2023/01/12 00:47:18;;;;;;;11.77;2.67;;;;;;;6.92;100.00;100853.22;5118398;28;20089;-84
2023/01/12 00:49:44;;;;;;;14.35;2.20;;;;;;;6.87;100.00;100840.31;5099658;28;20036;-84
2023/01/12 00:52:15;;;;;;;15.63;2.53;;;;;;;6.92;100.00;100848.63;5099269;28;20476;-84
2023/01/12 00:54:41;;;;;;;21.40;3.08;;;;;;;6.90;100.00;100839.91;5099106;28;20030;-84
2023/01/12 00:57:08;;;;;;;16.25;2.58;;;;;;;6.88;100.00;100836.59;5099173;28;20466;-84
2023/01/12 00:59:34;;;;;;;19.05;2.70;;;;;;;6.98;100.00;100838.94;5100036;28;20068;-84
2023/01/12 01:01:59;;;;;;;14.77;2.10;;;;;;;6.95;100.00;100820.44;5117824;28;20449;-84
2023/01/12 01:04:24;;;;;;;20.27;3.17;;;;;;;6.97;100.00;100818.41;5098955;28;20364;-84
2023/01/12 01:06:50;;;;;;;10.20;2.47;;;;;;;6.94;100.00;100813.38;5098631;28;20039;-84
2023/01/12 01:09:16;;;;;;;15.00;2.53;;;;;;;6.95;100.00;100815.91;5081887;28;20038;-83
2023/01/12 01:11:41;;;;;;;8.20;2.13;;;;;;;7.01;100.00;100820.53;5117160;28;20019;-84
2023/01/12 01:14:12;;;;;;;21.27;3.45;;;;;;;7.00;100.00;100797.28;5098696;28;20040;-84
2023/01/12 01:16:38;;;;;;;17.15;2.80;;;;;;;6.96;100.00;100806.78;5099199;28;20518;-83
2023/01/12 01:19:06;;;;;;;18.90;2.50;;;;;;;7.03;100.00;100804.97;5082092;28;20069;-84
2023/01/12 01:21:32;;;;;;;20.27;3.10;;;;;;;6.94;100.00;100805.28;5081985;28;20368;-84
2023/01/12 01:23:58;;;;;;;21.35;3.08;;;;;;;6.93;100.00;100803.66;5081624;28;20126;-83
2023/01/12 01:26:24;;;;;;;18.90;3.15;;;;;;;6.97;100.00;100788.75;5098696;28;20108;-84
2023/01/12 01:28:50;;;;;;;14.53;2.50;;;;;;;6.99;100.00;100805.56;5098679;28;20027;-83
2023/01/12 01:31:20;;;;;;;19.02;2.75;;;;;;;6.98;100.00;100793.09;5116951;28;20459;-83
2023/01/12 01:33:46;;;;;;;14.30;3.08;;;;;;;7.02;100.00;100802.47;5098875;28;20069;-83
2023/01/12 01:36:15;;;;;;;15.47;2.43;;;;;;;7.01;100.00;100801.66;5081818;28;20476;-84
2023/01/12 01:38:43;;;;;;;23.23;3.45;;;;;;;6.98;100.00;100791.25;5098451;28;20034;-83
2023/01/12 01:41:16;;;;;;;31.45;3.20;;;;;;;6.98;100.00;100790.41;5098473;28;20375;-83
2023/01/12 01:43:57;;;;;;;22.00;2.70;;;;;;;7.09;100.00;100794.47;5085774;28;20066;-83
2023/01/12 01:46:50;;;;;;;26.83;3.70;;;;;;;7.00;100.00;100788.34;5077989;28;20032;-83
2023/01/12 01:49:33;;;;;;;25.33;3.33;;;;;;;7.06;100.00;100784.03;5078286;28;20028;-84
2023/01/12 01:52:06;;;;;;;24.23;2.95;;;;;;;6.99;100.00;100776.72;5078087;28;20028;-83
2023/01/12 01:54:38;;;;;;;19.55;3.25;;;;;;;7.00;100.00;100767.59;5077995;28;20055;-83
2023/01/12 01:57:04;;;;;;;42.10;3.78;;;;;;;6.98;100.00;100769.66;5095980;28;20035;-83
2023/01/12 01:59:33;;;;;;;19.10;2.40;;;;;;;6.94;100.00;100748.66;5077674;28;20028;-83
2023/01/12 02:02:00;;;;;;;18.17;2.47;;;;;;;6.96;100.00;100752.81;5077808;28;20081;-83
2023/01/12 02:04:25;;;;;;;26.95;2.78;;;;;;;6.92;100.00;100748.00;5060979;28;20494;-83
2023/01/12 02:06:56;;;;;;;24.65;3.05;;;;;;;6.93;100.00;100738.91;5077603;28;20032;-83
2023/01/12 02:09:26;;;;;;;24.00;2.93;;;;;;;6.91;100.00;100744.50;5061537;28;20047;-83
2023/01/12 02:17:33;;;;;;;20.25;2.28;;;;;;;6.95;100.00;100721.50;5095705;28;20039;-83
2023/01/12 02:20:32;;;;;;;18.98;1.98;;;;;;;7.01;100.00;100720.72;5078118;28;20032;-83
2023/01/12 02:23:06;;;;;;;18.10;2.40;;;;;;;7.00;100.00;100729.00;5095924;28;20118;-83
2023/01/12 02:25:53;;;;;;;23.13;3.13;;;;;;;7.01;100.00;100718.03;5077359;28;20060;-83
2023/01/12 02:28:46;;;;;;;23.67;3.30;;;;;;;6.98;100.00;100733.75;5077335;28;20116;-83
2023/01/12 02:31:42;;;;;;;29.88;3.70;;;;;;;7.02;100.00;100730.47;5077018;28;20480;-83
2023/01/12 02:34:19;;;;;;;31.00;2.80;;;;;;;7.00;100.00;100729.00;5077164;28;20020;-83
2023/01/12 02:37:16;;;;;;;21.70;2.50;;;;;;;6.98;100.00;100718.41;5077096;28;20032;-84
2023/01/12 02:39:58;;;;;;;27.58;3.60;;;;;;;7.02;100.00;100708.06;5094617;28;20036;-84
2023/01/12 02:42:53;;;;;;;19.70;2.50;;;;;;;7.03;100.00;100715.13;5096450;28;20460;-83
2023/01/12 02:45:19;;;;;;;30.58;3.10;;;;;;;7.00;100.00;100693.94;5077663;28;20071;-83
2023/01/12 02:47:56;;;;;;;18.77;2.37;;;;;;;7.00;100.00;100702.84;5096899;28;20459;-83
2023/01/12 02:50:43;;;;;;;24.60;3.25;;;;;;;7.09;100.00;100717.03;5097167;28;20023;-83
2023/01/12 02:53:52;;;;;;;21.75;2.90;;;;;;;7.11;100.00;100695.25;5097069;28;20023;-83
2023/01/12 02:56:28;;;;;;;31.20;3.55;;;;;;;7.02;100.00;100681.09;5052594;28;20035;-83
2023/01/12 02:58:58;;;;;;;15.35;2.53;;;;;;;7.03;100.00;100678.19;5115032;28;20073;-83
2023/01/12 03:01:26;;;;;;;26.73;3.08;;;;;;;7.01;100.00;100682.09;5097154;28;20134;-83
2023/01/12 03:03:55;;;;;;;27.60;3.08;;;;;;;7.06;100.00;100665.31;5114845;28;20035;-83
2023/01/12 03:06:20;;;;;;;9.52;2.13;;;;;;;7.08;100.00;100661.41;5096566;28;20024;-83
2023/01/12 03:08:48;;;;;;;20.17;2.40;;;;;;;7.05;100.00;100645.63;5114869;28;20150;-83
2023/01/12 03:11:17;;;;;;;31.83;2.75;;;;;;;7.08;100.00;100653.31;5114560;28;20532;-83
2023/01/12 03:13:47;;;;;;;20.70;1.92;;;;;;;7.09;100.00;100627.19;5096425;28;20036;-83
2023/01/12 03:16:18;;;;;;;21.65;2.90;;;;;;;7.09;100.00;100628.00;5096388;28;20027;-83
2023/01/12 03:18:52;;;;;;;19.27;2.97;;;;;;;7.00;100.00;100621.09;5097066;28;20035;-83
2023/01/12 03:21:27;;;;;;;12.25;1.88;;;;;;;7.08;100.00;100607.44;5114903;28;20031;-83
2023/01/12 03:24:03;;;;;;;21.58;2.72;;;;;;;7.09;100.00;100616.41;5097443;28;20043;-83
2023/01/12 03:26:31;;;;;;;19.20;2.60;;;;;;;7.11;100.00;100615.13;5097425;28;20023;-83
2023/01/12 03:29:14;;;;;;;18.17;2.80;;;;;;;7.07;100.00;100607.66;5115332;28;20023;-83
2023/01/12 03:31:41;;;;;;;17.20;2.80;;;;;;;7.09;100.00;100608.31;5114473;28;20055;-83
2023/01/12 03:34:07;;;;;;;18.08;2.65;;;;;;;7.10;100.00;100596.44;5114678;28;20032;-83
2023/01/12 03:36:47;;;;;;;19.88;2.08;;;;;;;7.17;100.00;100627.84;5079259;28;20058;-82
2023/01/12 03:39:27;;;;;;;21.17;2.50;;;;;;;7.18;100.00;100580.94;5114934;28;20479;-83
2023/01/12 03:42:16;;;;;;;13.20;2.05;;;;;;;7.11;100.00;100587.34;5095926;28;20036;-83
2023/01/12 03:45:10;;;;;;;18.58;2.30;;;;;;;7.08;100.00;100596.66;5115133;28;20039;-83
2023/01/12 03:47:36;;;;;;;14.25;1.92;;;;;;;7.18;100.00;100577.41;5114851;28;20034;-83
2023/01/12 03:50:06;;;;;;;15.48;1.92;;;;;;;7.17;100.00;100562.25;5113847;28;20039;-83
2023/01/12 03:52:34;;;;;;;16.70;1.98;;;;;;;7.08;100.00;100541.88;5096122;28;20080;-83
2023/01/12 03:55:02;;;;;;;17.48;2.30;;;;;;;7.09;100.00;100527.38;5096049;28;20023;-83
2023/01/12 03:57:28;;;;;;;16.63;1.88;;;;;;;7.06;100.00;100509.69;5096854;28;20517;-83
2023/01/12 03:59:55;;;;;;;19.02;1.92;;;;;;;7.06;100.00;100504.31;5095980;28;20073;-83
2023/01/12 04:02:21;;;;;;;15.48;1.80;;;;;;;7.04;100.00;100509.06;5078947;28;20028;-83
2023/01/12 04:04:46;;;;;;;17.40;2.72;;;;;;;7.03;100.00;100510.94;5113976;28;20028;-83
2023/01/12 04:07:12;;;;;;;22.20;1.83;;;;;;;7.03;100.00;100499.31;5096615;28;20031;-83
2023/01/12 04:09:37;;;;;;;11.63;1.87;;;;;;;7.20;100.00;100494.38;5079370;28;20084;-83
2023/01/12 04:12:12;;;;;;;23.15;2.42;;;;;;;7.14;100.00;100479.00;5079345;28;20092;-83
2023/01/12 04:14:39;;;;;;;16.37;2.40;;;;;;;7.12;100.00;100471.13;5080598;28;20456;-83
2023/01/12 04:17:05;;;;;;;21.83;2.45;;;;;;;7.10;100.00;100467.81;5095889;28;20052;-83
2023/01/12 04:19:30;;;;;;;15.75;1.88;;;;;;;7.17;100.00;100475.91;5095901;28;20039;-83
2023/01/12 04:24:40;;;;;;;14.43;2.25;;;;;;;7.12;100.00;100465.72;5114064;28;20496;-83
2023/01/12 04:27:05;;;;;;;14.80;2.47;;;;;;;7.11;100.00;100460.53;5113799;28;20035;-83
2023/01/12 04:29:31;;;;;;;19.35;2.53;;;;;;;7.09;100.00;100468.84;5096012;28;20471;-83
2023/01/12 04:31:56;;;;;;;24.93;3.30;;;;;;;7.11;100.00;100447.03;5095546;28;20036;-83
2023/01/12 04:34:24;;;;;;;20.30;2.03;;;;;;;7.12;100.00;100454.13;5095785;28;20103;-83
2023/01/12 04:36:49;;;;;;;15.98;2.30;;;;;;;7.05;100.00;100413.63;5114055;28;20038;-82
2023/01/12 04:39:15;;;;;;;18.93;1.90;;;;;;;7.11;100.00;100428.16;5096183;28;20039;-83
2023/01/12 04:41:40;;;;;;;11.93;1.57;;;;;;;7.16;100.00;100425.66;5095848;28;20032;-82
2023/01/12 04:44:06;;;;;;;13.83;1.83;;;;;;;7.16;100.00;100383.34;5095239;28;20080;-83
2023/01/12 04:46:31;;;;;;;17.40;2.60;;;;;;;7.12;100.00;100403.69;5095546;28;20024;-83
2023/01/12 04:48:57;;;;;;;7.93;1.40;;;;;;;7.12;100.00;100392.06;5095669;28;20089;-83
2023/01/12 04:51:23;;;;;;;15.87;1.97;;;;;;;7.19;100.00;100377.53;5079185;28;20495;-82
2023/01/12 04:53:50;;;;;;;15.43;1.40;;;;;;;7.11;100.00;100358.00;5079004;28;20050;-82
2023/01/12 04:56:16;;;;;;;12.07;1.27;;;;;;;7.12;100.00;100365.09;5095139;28;20062;-82
2023/01/12 04:58:42;;;;;;;13.40;1.67;;;;;;;7.20;100.00;100364.88;5095772;28;20033;-83
2023/01/12 05:01:12;;;;;;;18.47;2.00;;;;;;;7.13;100.00;100391.00;5079267;28;20050;-83
2023/01/12 05:03:37;;;;;;;12.18;1.40;;;;;;;7.14;100.00;100371.91;5082468;28;20032;-83
2023/01/12 05:06:04;;;;;;;13.90;1.40;;;;;;;7.14;100.00;100392.69;5099989;28;20043;-83
2023/01/12 05:11:13;;;;;;;15.10;2.05;;;;;;;7.16;100.00;100371.72;5102561;28;20046;-83
2023/01/12 05:13:39;;;;;;;19.60;1.73;;;;;;;7.17;100.00;100370.69;5099257;28;20027;-82
2023/01/12 05:16:09;;;;;;;13.25;2.08;;;;;;;7.17;100.00;100374.19;5117382;28;20042;-82
2023/01/12 05:18:35;;;;;;;16.67;1.60;;;;;;;7.16;100.00;100371.72;5116941;28;20030;-82
2023/01/12 05:21:00;;;;;;;13.55;1.88;;;;;;;7.14;100.00;100392.69;5099172;28;20027;-82
2023/01/12 05:23:26;;;;;;;14.20;1.60;;;;;;;7.15;100.00;100370.06;5098680;28;20475;-83
2023/01/12 05:25:51;;;;;;;11.07;1.57;;;;;;;7.16;100.00;100369.00;5065590;28;20027;-82
2023/01/12 05:28:16;;;;;;;18.58;1.73;;;;;;;7.20;100.00;100376.53;5081889;28;20035;-83
2023/01/12 05:30:42;;;;;;;6.88;1.10;;;;;;;7.22;100.00;100370.91;5098946;28;20055;-82
2023/01/12 05:33:14;;;;;;;21.13;1.90;;;;;;;7.18;100.00;100367.78;5082303;28;20024;-82
2023/01/12 05:35:40;;;;;;;12.98;1.73;;;;;;;7.18;100.00;100340.78;5099533;28;20040;-82
2023/01/12 05:38:05;;;;;;;19.40;1.23;;;;;;;7.14;100.00;100344.94;5098654;28;20451;-82
2023/01/12 05:40:31;;;;;;;13.97;1.77;;;;;;;7.17;100.00;100387.69;5116752;28;20028;-82
2023/01/12 05:45:40;;;;;;;21.73;2.27;;;;;;;7.21;100.00;100366.53;5101300;28;20042;-82
2023/01/12 05:48:06;;;;;;;11.80;2.08;;;;;;;7.19;100.00;100377.53;5081219;28;20028;-82
2023/01/12 05:50:31;;;;;;;9.73;1.60;;;;;;;7.18;100.00;100359.69;5098461;28;20104;-83
2023/01/12 05:52:56;;;;;;;13.43;1.10;;;;;;;7.23;100.00;100375.25;5116611;28;20027;-83
2023/01/12 05:55:22;;;;;;;11.00;1.20;;;;;;;7.19;100.00;100342.47;5116369;28;20027;-83
2023/01/12 05:57:47;;;;;;;11.17;1.67;;;;;;;7.28;100.00;100347.66;5081257;28;20046;-83
2023/01/12 06:00:13;;;;;;;20.77;1.60;;;;;;;7.22;100.00;100353.88;5098333;28;20059;-83
2023/01/12 06:02:38;;;;;;;7.67;1.30;;;;;;;7.28;100.00;100343.09;5081054;28;20036;-82
2023/01/12 06:05:07;;;;;;;19.90;2.17;;;;;;;7.26;100.00;100330.84;5116546;28;20045;-83
2023/01/12 06:07:33;;;;;;;10.02;1.50;;;;;;;7.31;100.00;100333.78;5081446;28;20048;-82
2023/01/12 06:09:58;;;;;;;10.75;1.40;;;;;;;7.35;100.00;100356.59;5064145;28;20034;-83
2023/01/12 06:15:08;;;;;;;16.95;1.70;;;;;;;7.29;100.00;100387.09;5101056;28;20455;-82
2023/01/12 06:17:33;;;;;;;13.03;1.50;;;;;;;7.30;100.00;100346.41;5116406;28;20059;-84
2023/01/12 06:19:58;;;;;;;13.65;1.23;;;;;;;7.36;100.00;100336.66;5097874;28;20046;-81
2023/01/12 06:22:26;;;;;;;9.73;1.37;;;;;;;7.36;100.00;100374.44;5098357;28;20039;-82
2023/01/12 06:24:52;;;;;;;11.10;1.30;;;;;;;7.38;100.00;100348.06;5097625;28;20027;-82
2023/01/12 06:27:18;;;;;;;12.48;1.60;;;;;;;7.38;100.00;100373.22;5097706;28;20030;-82
2023/01/12 06:29:43;;;;;;;10.93;1.20;;;;;;;7.44;100.00;100357.22;5098234;28;20039;-84
2023/01/12 06:32:08;;;;;;;9.35;1.08;;;;;;;7.45;100.00;100362.41;5081167;28;20047;-82
2023/01/12 06:34:34;;;;;;;14.27;1.20;;;;;;;7.44;100.00;100365.31;5115375;28;20058;-83
2023/01/12 06:37:03;;;;;;;9.87;1.10;;;;;;;7.46;100.00;100365.97;5080392;28;20069;-83
2023/01/12 06:39:29;;;;;;;10.23;1.25;;;;;;;7.49;100.00;100363.66;5115311;28;20019;-83
2023/01/12 06:44:39;;;;;;;10.35;1.27;;;;;;;7.57;100.00;100351.81;5095622;28;20094;-82
2023/01/12 06:47:04;;;;;;;9.43;1.45;;;;;;;7.49;100.00;100373.66;5060964;28;20114;-82
2023/01/12 06:49:29;;;;;;;11.23;1.37;;;;;;;7.51;100.00;100358.91;5059677;28;20373;-83
2023/01/12 06:51:55;;;;;;;11.30;1.00;;;;;;;7.56;100.00;100369.09;5094951;28;20086;-82
2023/01/12 06:54:20;;;;;;;8.27;0.80;;;;;;;7.60;100.00;100408.09;5076520;28;20047;-82
2023/01/12 06:56:46;;;;;;;8.07;1.13;;;;;;;7.61;100.00;100314.47;5094495;28;20290;-81
2023/01/12 06:59:12;;;;;;;4.23;1.03;;;;;;;7.57;100.00;100357.22;5043171;28;20059;-81
2023/01/12 07:01:38;;;;;;;8.52;1.45;;;;;;;7.59;100.00;100348.91;5076767;28;20044;-81
2023/01/12 07:04:04;;;;;;;9.30;1.50;;;;;;;7.61;100.00;100352.25;5076166;28;20036;-82
2023/01/12 07:06:30;;;;;;;3.40;0.55;;;;;;;7.60;100.00;100339.78;5076297;28;20077;-82
2023/01/12 07:08:55;;;;;;;7.03;1.00;;;;;;;7.59;100.00;100351.63;5076041;28;20107;-82
2023/01/12 07:11:21;;;;;;;6.40;1.50;;;;;;;7.63;100.00;100359.13;5059297;28;20031;-82
2023/01/12 07:13:46;;;;;;;5.30;0.80;;;;;;;7.62;100.00;100351.19;5042278;28;20063;-82
2023/01/12 07:16:12;;;;;;;2.80;0.90;;;;;;;7.62;100.00;100337.69;5076991;28;20398;-82
2023/01/12 07:18:38;;;;;;;6.25;0.80;;;;;;;7.68;100.00;100355.78;5076487;28;20027;-81
2023/01/12 07:21:05;;;;;;;5.03;0.80;;;;;;;7.74;100.00;100376.56;5075745;28;20123;-82
2023/01/12 07:23:30;;;;;;;5.80;1.05;;;;;;;7.63;100.00;100348.31;5092411;28;20028;-81
2023/01/12 07:25:56;;;;;;;5.60;0.77;;;;;;;7.68;100.00;100361.19;5059317;28;20032;-81
2023/01/12 07:28:22;;;;;;;7.80;1.20;;;;;;;7.63;100.00;100355.56;5075702;28;20530;-80
2023/01/12 07:30:47;;;;;;;4.87;0.87;;;;;;;7.68;100.00;100358.50;5075446;28;20036;-81
2023/01/12 07:33:14;;;;;;;4.13;1.07;;;;;;;7.64;100.00;100365.34;5075722;28;20510;-81
2023/01/12 07:35:41;;;;;;;3.80;1.00;;;;;;;7.64;100.00;100368.84;5093276;28;20750;-81
2023/01/12 07:38:07;;;;;;;7.25;0.85;;;;;;;7.69;100.00;100370.94;5075065;28;20024;-81
2023/01/12 07:40:33;;;;;;;6.10;0.88;;;;;;;7.75;100.00;100374.66;5093960;28;20035;-81
2023/01/12 07:43:00;;;;;;;6.60;1.10;;;;;;;7.69;100.00;100365.53;5081954;28;20087;-81
2023/01/12 07:45:27;;;;;;;6.25;1.08;;;;;;;7.78;100.00;100367.00;5096177;28;20058;-82
2023/01/12 07:47:54;;;;;;;9.20;1.00;;;;;;;7.76;100.00;100346.63;5113979;28;20035;-83
2023/01/12 07:50:20;;;;;;;6.25;0.95;;;;;;;7.76;100.00;100374.47;5095234;28;20023;-82
2023/01/12 07:52:46;;;;;;;3.45;0.70;;;;;;;7.86;100.00;100355.97;5095826;28;20036;-82
2023/01/12 07:55:15;;;;;;;8.53;1.20;;;;;;;7.76;100.00;100371.75;5078626;28;20046;-82
2023/01/12 07:57:41;;;;;;;8.63;1.02;;;;;;;7.79;100.00;100406.44;5095624;28;20034;-81
2023/01/12 08:00:07;;;;;;;4.38;1.23;;;;;;;7.86;100.00;100374.06;5079446;28;20042;-82
2023/01/12 08:02:33;;;;;;;6.25;1.20;;;;;;;7.86;100.00;100395.66;5113592;28;20576;-82
2023/01/12 08:04:58;;;;;;;4.93;1.00;;;;;;;7.82;100.00;100389.81;5095572;28;20035;-83
2023/01/12 08:07:26;;;;;;;6.07;1.27;;;;;;;7.82;100.00;100391.72;5095574;28;20475;-82
2023/01/12 08:09:52;;;;;;;3.08;0.80;;;;;;;7.92;100.00;100391.31;5079595;28;20031;-82
2023/01/12 08:12:17;;;;;;;5.77;1.00;;;;;;;7.89;100.00;100395.25;5079412;28;20036;-81
2023/01/12 08:14:43;;;;;;;4.93;1.17;;;;;;;7.88;100.00;100410.63;5113791;28;20028;-81
2023/01/12 08:17:16;;;;;;;7.18;1.08;;;;;;;7.88;100.00;100412.47;5061870;28;20382;-82
2023/01/12 08:19:56;;;;;;;3.78;1.00;;;;;;;7.87;100.00;100417.06;5095767;28;20592;-81
2023/01/12 08:22:29;;;;;;;8.63;1.00;;;;;;;7.88;100.00;100415.19;5113712;28;20078;-82
2023/01/12 08:25:02;;;;;;;5.93;1.23;;;;;;;7.88;100.00;100413.31;5113736;28;20027;-81
2023/01/12 08:27:31;;;;;;;8.70;1.30;;;;;;;7.90;100.00;100419.34;5095973;28;20047;-81
2023/01/12 08:29:57;;;;;;;7.57;1.27;;;;;;;7.92;100.00;100435.34;5095591;28;20422;-81
2023/01/12 08:32:24;;;;;;;9.48;1.58;;;;;;;7.94;100.00;100427.03;5095662;28;20032;-81
2023/01/12 08:34:52;;;;;;;5.53;1.20;;;;;;;7.95;100.00;100432.22;5096442;28;20032;-81
2023/01/12 08:37:21;;;;;;;8.30;1.50;;;;;;;7.95;100.00;100442.22;5081305;28;20028;-82
2023/01/12 08:39:48;;;;;;;5.00;1.10;;;;;;;8.00;100.00;100426.19;5117890;28;20027;-81
2023/01/12 08:42:13;;;;;;;5.78;1.13;;;;;;;8.05;100.00;100429.13;5082479;28;20040;-81
2023/01/12 08:44:39;;;;;;;2.97;1.10;;;;;;;8.01;100.00;100442.19;5118708;28;20067;-80
2023/01/12 08:47:14;;;;;;;4.50;1.30;;;;;;;8.06;100.00;100437.00;5082745;28;20043;-81
2023/01/12 08:49:40;;;;;;;4.78;1.17;;;;;;;8.06;100.00;100444.25;5118125;28;20069;-82
2023/01/12 08:52:05;;;;;;;6.87;1.40;;;;;;;8.08;100.00;100461.94;5082771;28;20395;-82
2023/01/12 08:54:31;;;;;;;6.70;1.30;;;;;;;8.08;100.00;100461.94;5082125;28;20130;-82
2023/01/12 08:56:56;;;;;;;6.27;1.30;;;;;;;8.10;100.00;100456.31;5082468;28;20039;-81
2023/01/12 08:59:21;;;;;;;4.83;1.23;;;;;;;8.09;100.00;100441.16;5099148;28;20479;-81
2023/01/12 09:01:47;;;;;;;6.10;1.27;;;;;;;8.10;100.00;100442.81;5082015;28;20414;-83
2023/01/12 09:04:12;;;;;;;3.43;0.97;;;;;;;8.16;100.00;100446.56;5082160;28;20038;-82
2023/01/12 09:06:41;;;;;;;4.10;1.00;;;;;;;8.14;100.00;100451.34;5117181;28;20179;-82
2023/01/12 09:09:14;;;;;;;4.18;1.17;;;;;;;8.20;100.00;100448.63;5099533;28;20030;-82
2023/01/12 09:11:41;;;;;;;3.13;1.00;;;;;;;8.24;100.00;100459.88;5099674;28;20038;-82
2023/01/12 09:14:07;;;;;;;4.10;1.10;;;;;;;8.24;100.00;100457.16;5098980;28;20023;-82
2023/01/12 09:16:33;;;;;;;5.00;1.25;;;;;;;8.24;100.00;100459.88;5099678;28;20031;-82
2023/01/12 09:18:59;;;;;;;6.47;0.93;;;;;;;8.25;100.00;100448.84;5099085;28;20035;-82
2023/01/12 09:21:26;;;;;;;4.43;0.82;;;;;;;8.26;100.00;100453.19;5099644;28;20031;-81
2023/01/12 09:23:53;;;;;;;5.35;1.60;;;;;;;8.33;100.00;100476.69;5117250;28;20459;-82
2023/01/12 09:26:21;;;;;;;7.28;1.40;;;;;;;8.30;100.00;100472.53;5082281;28;20036;-82
2023/01/12 09:28:47;;;;;;;3.33;1.35;;;;;;;8.31;100.00;100471.50;5099005;28;20039;-82
2023/01/12 09:31:15;;;;;;;5.95;1.23;;;;;;;8.34;100.00;100494.56;5064797;28;20054;-82
2023/01/12 09:33:41;;;;;;;3.60;0.83;;;;;;;8.37;100.00;100484.19;5098875;28;20414;-81
2023/01/12 09:36:10;;;;;;;6.45;1.52;;;;;;;8.32;100.00;100497.47;5081651;28;20059;-82
2023/01/12 09:38:37;;;;;;;6.80;1.23;;;;;;;8.39;100.00;100492.91;5098709;28;20059;-82
2023/01/12 09:47:27;;;;;;;2.47;0.60;;;;;;;8.37;100.00;100489.59;5116615;28;20054;-81
2023/01/12 09:50:11;;;;;;;2.28;0.52;;;;;;;8.45;100.00;100499.38;5116342;28;20031;-82
2023/01/12 09:52:40;;;;;;;1.55;0.55;;;;;;;8.41;100.00;100489.97;5116755;28;20220;-82
2023/01/12 09:55:15;;;;;;;2.25;0.75;;;;;;;8.40;100.00;100516.19;5098137;28;20031;-83
2023/01/12 09:57:55;;;;;;;1.67;0.75;;;;;;;8.37;100.00;100491.44;5097719;28;20030;-82
2023/01/12 10:00:21;;;;;;;2.53;0.60;;;;;;;8.41;100.00;100501.66;5116303;28;20024;-82
2023/01/12 10:03:12;;;;;;;4.53;0.80;;;;;;;8.41;100.00;100506.19;5081826;28;20078;-82
2023/01/12 10:05:59;;;;;;;4.32;0.80;;;;;;;8.46;100.00;100524.53;5097015;28;20407;-82
2023/01/12 10:08:47;;;;;;;3.45;0.70;;;;;;;8.42;100.00;100510.56;5097969;28;20059;-82
2023/01/12 10:11:27;;;;;;;2.47;0.77;;;;;;;8.44;100.00;100511.22;5086921;28;20031;-82
2023/01/12 10:14:19;;;;;;;3.08;0.70;;;;;;;8.46;100.00;100506.44;5116583;28;20031;-82
2023/01/12 10:17:06;;;;;;;2.65;0.63;;;;;;;8.50;100.00;100502.25;5116264;28;20065;-83
2023/01/12 10:20:00;;;;;;;3.28;0.60;;;;;;;8.50;100.00;100510.38;5097780;28;20036;-83
2023/01/12 10:22:38;;;;;;;2.50;0.80;;;;;;;8.49;100.00;100519.53;5115690;28;20024;-83
2023/01/12 10:25:30;;;;;;;3.35;1.05;;;;;;;8.50;100.00;100513.06;5097782;28;20035;-83
2023/01/12 10:28:05;;;;;;;4.35;0.70;;;;;;;8.50;100.00;100502.25;5097874;28;20039;-83
2023/01/12 10:30:35;;;;;;;3.20;0.65;;;;;;;8.49;100.00;100494.38;5115894;28;20110;-83
2023/01/12 10:33:17;;;;;;;3.92;0.60;;;;;;;8.56;100.00;100506.84;5097787;28;20115;-83
2023/01/12 10:35:55;;;;;;;2.75;0.50;;;;;;;8.51;100.00;100506.63;5097695;28;20040;-82
2023/01/12 10:38:24;;;;;;;2.58;0.50;;;;;;;8.60;100.00;100537.81;5097443;28;20383;-82
2023/01/12 10:41:13;;;;;;;2.35;0.65;;;;;;;8.53;100.00;100501.88;5097310;28;20172;-82
2023/01/12 10:43:41;;;;;;;2.83;0.70;;;;;;;8.56;100.00;100504.16;5115862;28;20051;-82
2023/01/12 10:46:18;;;;;;;1.50;0.52;;;;;;;8.64;100.00;100507.69;5079963;28;20043;-84
2023/01/12 10:48:46;;;;;;;1.95;0.50;;;;;;;8.64;100.00;100504.97;5097187;28;20039;-82
2023/01/12 10:51:28;;;;;;;1.52;0.80;;;;;;;8.61;100.00;100503.50;5115258;28;20034;-82
2023/01/12 10:53:59;;;;;;;3.38;0.68;;;;;;;8.62;100.00;100496.22;5115094;28;20110;-82
2023/01/12 10:56:32;;;;;;;1.25;0.60;;;;;;;8.66;100.00;100495.59;5096734;28;20073;-82
2023/01/12 10:59:13;;;;;;;5.70;0.73;;;;;;;8.59;100.00;100495.63;5096454;28;20054;-82
2023/01/12 11:01:41;;;;;;;2.85;0.80;;;;;;;8.62;100.00;100494.34;5096662;28;20036;-83
2023/01/12 11:04:11;;;;;;;2.42;0.68;;;;;;;8.60;100.00;100508.06;5096398;28;20031;-83
2023/01/12 11:06:37;;;;;;;1.70;0.60;;;;;;;8.63;100.00;100506.00;5097240;28;20020;-83
2023/01/12 11:09:26;;;;;;;1.93;0.80;;;;;;;8.64;100.00;100505.78;5097305;28;20038;-83
2023/01/12 11:11:53;;;;;;;1.60;0.60;;;;;;;8.65;100.00;100515.59;5114818;28;20326;-83
2023/01/12 11:14:39;;;;;;;3.30;0.80;;;;;;;8.65;100.00;100510.16;5096711;28;20038;-83
2023/01/12 11:17:31;;;;;;;2.80;0.60;;;;;;;8.67;100.00;100521.59;5114130;28;20049;-82
2023/01/12 11:19:59;;;;;;;4.55;0.90;;;;;;;8.65;100.00;100507.47;5096840;28;20058;-83
2023/01/12 11:22:32;;;;;;;3.10;0.70;;;;;;;8.67;100.00;100508.06;5114485;28;20028;-82
2023/01/12 11:25:22;;;;;;;3.67;1.00;;;;;;;8.73;100.00;100491.00;5114969;28;20368;-83
2023/01/12 11:28:00;;;;;;;2.80;1.00;;;;;;;8.73;100.00;100519.94;5096788;28;20038;-82
2023/01/12 11:30:40;;;;;;;1.20;0.70;;;;;;;8.78;100.00;100496.63;5096579;28;20034;-82
2023/01/12 11:33:17;;;;;;;1.73;0.60;;;;;;;8.70;100.00;100488.72;5114853;28;20027;-82
2023/01/12 11:35:45;;;;;;;2.38;0.75;;;;;;;8.72;100.00;100505.56;5114268;28;20027;-82
2023/01/12 11:38:35;;;;;;;2.97;0.85;;;;;;;8.72;100.00;100492.03;5096241;28;20475;-82
2023/01/12 11:41:08;;;;;;;3.20;0.70;;;;;;;8.75;100.00;100504.31;5096191;28;20056;-82
2023/01/12 11:44:11;;;;;;;2.95;0.90;;;;;;;8.75;100.00;100493.47;5114470;28;20130;-82
2023/01/12 11:47:00;;;;;;;1.70;0.60;;;;;;;8.78;100.00;100490.34;5114406;28;20044;-82
2023/01/12 11:49:35;;;;;;;2.95;0.77;;;;;;;8.85;100.00;100488.47;5114598;28;20057;-84
2023/01/12 11:52:01;;;;;;;2.28;0.60;;;;;;;8.77;100.00;100494.94;5096186;28;20035;-83
2023/01/12 11:54:29;;;;;;;2.38;0.77;;;;;;;8.78;100.00;100493.91;5096240;28;20077;-83
2023/01/12 11:57:19;;;;;;;4.78;1.33;;;;;;;8.79;100.00;100521.78;5095534;28;20024;-83
2023/01/12 12:00:23;;;;;;;5.00;1.17;;;;;;;8.90;100.00;100485.13;5095961;28;20046;-83
2023/01/12 12:03:08;;;;;;;1.63;0.65;;;;;;;8.87;100.00;100510.75;5052331;28;20032;-83
2023/01/12 12:05:49;;;;;;;2.28;0.70;;;;;;;8.86;100.00;100484.72;5114140;28;20135;-83
2023/01/12 12:08:28;;;;;;;2.47;0.90;;;;;;;8.83;100.00;100474.34;5096129;28;20031;-83
2023/01/12 12:11:32;;;;;;;3.67;0.80;;;;;;;8.81;100.00;100479.09;5095056;28;20049;-83